Pago Pago, AS

5:08 PM SST on July 28, 2014 (GMT -1100)
Kona International At Keahole (PHKO) Elev 43 ft | 19.74 °N, 156.05 °W | Change Station

Current weather conditions updated 15 minutes ago

Overcast
Overcast
84 °F
Feels Like 89 °F
N
7
Wind Variable Wind from SW

Tomorrow is forecast to be Cooler than today. Showers and thunderstorms.

Today
High -- | Low -- °F
--% Chance of Precip.
Yesterday
High -- | Low -- °F
Precip. -- in
6:45 AM 6:13 PM
Waxing Crescent, 4% visible
Pressure 29.96 in
Visibility 10.0 miles
Clouds Overcast 5500 ft
Heat Index 89 °F
Dew Point 71 °F
Humidity 65%
Rainfall 0.00 in
Snow Depth Not available.
UV 0 out of 12
Pollen Not available.
Air Quality Not available.
Flu Activity Not available.
METAR PHKO 290353Z 22006KT 10SM OVC055 29/22 A2996 RMK AO2 SLP145 T02890217

More Conditions Fewer Conditions

Pressure 29.96 in
Visibility 10.0 miles
Clouds Overcast 5500 ft
Heat Index 89 °F
Dew Point 71 °F
Humidity 65%
Rainfall 0.00 in
Snow Depth Not available.
UV 0 out of 12
Pollen Not available.
Air Quality Not available.
Flu Activity Not available.
METAR PHKO 290353Z 22006KT 10SM OVC055 29/22 A2996 RMK AO2 SLP145 T02890217

More Conditions Fewer Conditions

10-Day Weather Forecast

Almanac

Astronomy

Jul. 28, 2014 Rise Set
Actual Time 6:45 AM SST 6:13 PM SST
Civil Twilight 6:23 AM SST 6:35 PM SST
Nautical Twilight 5:57 AM SST 7:01 PM SST
Astronomical Twilight 5:31 AM SST 7:27 PM SST
Moon 7:52 AM SST (7/28) 7:56 PM SST (7/28)
Length of Visible Light 12h 12m
Length of Day
11h 27m
Tomorrow will be 0m 31s longer.
Waxing Crescent, 4% of the Moon is Illuminated
Jul 29
Waxing Crescent
Aug 3
First Quarter
Aug 10
Full
Aug 17
Last Quarter
Aug 25
New

Community

WunderPhotos

Upload Photos

1,738,626 photos uploaded!

Nearby

Snow Depth

Station Depth Elevation
No new snow has been reported.

Earthquake Activity

City Distance Mag. Time & Date
No recent earthquake activity has been reported nearby.
Minimum magnitude displayed is 2.5.

Coastal Water Temperatures

Place Temperature
No Stations Reporting

Nearby Weather Stations

There are no personal weather stations in this area.